Time;durP1;ratioP1;P1;durP2;ratioP2;P2;SDS_P1;SDS_P2;PMS_P1;PMS_P2;Temp;Humidity;BMP_temperature;BMP_pressure;BME280_temperature;BME280_humidity;BME280_pressure;Samples;Min_cycle;Max_cycle;Signal;HPM_P1;HPM_P2
2022/07/13 00:00:14;;;;;;;19.07;11.27;;;20.60;99.90;;;;;;5036384;28;20446;-77
2022/07/13 00:02:40;;;;;;;18.02;11.88;;;20.60;99.90;;;;;;5036535;28;20045;-77
2022/07/13 00:05:06;;;;;;;18.47;11.37;;;20.60;99.90;;;;;;5018069;28;20564;-76
2022/07/13 00:07:35;;;;;;;16.05;10.00;;;20.50;99.90;;;;;;5018236;28;20088;-76
2022/07/13 00:10:02;;;;;;;15.82;11.10;;;20.50;99.90;;;;;;5019202;28;20053;-75
2022/07/13 00:12:28;;;;;;;15.55;10.32;;;20.50;99.90;;;;;;5019006;28;20421;-76
2022/07/13 00:14:54;;;;;;;15.17;10.37;;;20.50;99.90;;;;;;5018665;28;20096;-76
2022/07/13 00:17:19;;;;;;;16.30;9.80;;;20.60;99.90;;;;;;5035752;28;20133;-77
2022/07/13 00:19:45;;;;;;;17.93;10.17;;;20.60;99.90;;;;;;5036335;28;20052;-76
2022/07/13 00:22:11;;;;;;;16.80;9.53;;;20.60;99.90;;;;;;5018061;28;20495;-76
2022/07/13 00:24:37;;;;;;;15.37;9.20;;;20.70;99.90;;;;;;5018537;28;20045;-76
2022/07/13 00:27:02;;;;;;;17.93;9.07;;;20.70;99.90;;;;;;5035905;28;20045;-76
2022/07/13 00:29:28;;;;;;;13.77;8.60;;;20.70;99.90;;;;;;5036114;28;20069;-76
2022/07/13 00:31:55;;;;;;;13.37;8.60;;;20.70;99.90;;;;;;5019265;28;20057;-76
2022/07/13 00:34:20;;;;;;;15.32;8.40;;;20.60;99.90;;;;;;5036595;28;20041;-76
2022/07/13 00:36:46;;;;;;;13.70;8.67;;;20.60;99.90;;;;;;5046655;28;20045;-76
2022/07/13 00:39:12;;;;;;;13.23;8.17;;;20.60;99.90;;;;;;5057964;28;20048;-76
2022/07/13 00:41:45;;;;;;;12.90;8.23;;;20.50;99.90;;;;;;5024756;28;20045;-76
2022/07/13 00:44:13;;;;;;;13.95;8.98;;;20.60;99.90;;;;;;5059158;28;20089;-76
2022/07/13 00:46:44;;;;;;;15.77;8.82;;;20.60;99.90;;;;;;5052650;28;20389;-76
2022/07/13 00:49:11;;;;;;;16.63;9.13;;;20.60;99.90;;;;;;5040275;28;20109;-77
2022/07/13 00:51:38;;;;;;;14.48;8.90;;;20.60;99.90;;;;;;5022803;28;20041;-76
2022/07/13 00:54:04;;;;;;;13.18;8.52;;;20.60;99.90;;;;;;5039205;28;20152;-76
2022/07/13 00:56:31;;;;;;;14.85;9.20;;;20.60;99.90;;;;;;5036715;28;20052;-76
2022/07/13 00:58:58;;;;;;;14.70;9.38;;;20.60;99.90;;;;;;5035404;28;20053;-76
2022/07/13 01:01:26;;;;;;;13.73;9.38;;;20.50;99.90;;;;;;5035666;28;20117;-76
2022/07/13 01:03:51;;;;;;;15.95;9.27;;;20.50;99.90;;;;;;5017704;28;20176;-76
2022/07/13 01:06:17;;;;;;;15.60;10.37;;;20.60;99.90;;;;;;5016681;28;20080;-76
2022/07/13 01:08:43;;;;;;;16.92;10.10;;;20.60;99.90;;;;;;5017756;28;20398;-76
2022/07/13 01:11:10;;;;;;;14.33;8.57;;;20.50;99.90;;;;;;5035181;28;20115;-76
2022/07/13 01:13:37;;;;;;;14.75;9.18;;;20.50;99.90;;;;;;5034934;28;20417;-76
2022/07/13 01:16:03;;;;;;;17.90;9.27;;;20.50;99.90;;;;;;5034857;28;20092;-76
2022/07/13 01:18:30;;;;;;;14.73;8.57;;;20.50;99.90;;;;;;5034625;28;20049;-76
2022/07/13 01:20:57;;;;;;;15.18;8.98;;;20.50;99.90;;;;;;5000933;28;20053;-76
2022/07/13 01:23:23;;;;;;;13.57;8.45;;;20.50;99.90;;;;;;5034486;28;20142;-76
2022/07/13 01:25:49;;;;;;;14.60;9.45;;;20.40;99.90;;;;;;5035196;28;20095;-75
2022/07/13 01:28:15;;;;;;;14.60;9.60;;;20.40;99.90;;;;;;5034664;28;20127;-76
2022/07/13 01:30:43;;;;;;;16.67;9.67;;;20.40;99.90;;;;;;5034547;28;20469;-76
2022/07/13 01:33:08;;;;;;;16.38;9.38;;;20.40;99.90;;;;;;5034430;28;20077;-76
2022/07/13 01:35:34;;;;;;;14.83;9.57;;;20.40;99.90;;;;;;5016161;28;20092;-77
2022/07/13 01:38:00;;;;;;;21.17;10.57;;;20.40;99.90;;;;;;5034746;28;20104;-76
2022/07/13 01:40:26;;;;;;;16.00;9.70;;;20.40;99.90;;;;;;5000404;28;20394;-76
2022/07/13 01:42:52;;;;;;;18.07;9.53;;;20.30;99.90;;;;;;5034185;28;20052;-77
2022/07/13 01:45:22;;;;;;;17.45;9.63;;;20.30;99.90;;;;;;5034300;28;20082;-76
2022/07/13 01:47:53;;;;;;;18.45;10.65;;;20.40;99.90;;;;;;5034536;28;20053;-76
2022/07/13 01:50:21;;;;;;;19.00;10.48;;;20.30;99.90;;;;;;5016438;28;20049;-76
2022/07/13 01:52:47;;;;;;;19.02;11.27;;;20.40;99.90;;;;;;5034249;28;20083;-76
2022/07/13 01:55:14;;;;;;;19.75;11.75;;;20.40;99.90;;;;;;5033978;28;20053;-77
2022/07/13 01:57:40;;;;;;;17.10;10.55;;;20.40;99.90;;;;;;5034069;28;20049;-77
2022/07/13 02:00:12;;;;;;;20.77;10.63;;;20.40;99.90;;;;;;5034811;28;20346;-76
2022/07/13 02:02:39;;;;;;;18.83;11.07;;;20.40;99.90;;;;;;5017460;28;20124;-76
2022/07/13 02:05:05;;;;;;;19.65;11.23;;;20.30;99.90;;;;;;5035109;28;20042;-76
2022/07/13 02:07:31;;;;;;;18.42;11.25;;;20.30;99.90;;;;;;5036063;28;20049;-76
2022/07/13 02:09:56;;;;;;;17.30;11.00;;;20.30;99.90;;;;;;5036400;28;20470;-76
2022/07/13 02:12:22;;;;;;;20.93;11.47;;;20.30;99.90;;;;;;5035323;28;20056;-77
2022/07/13 02:14:48;;;;;;;22.58;11.13;;;20.30;99.90;;;;;;5034833;28;20060;-77
2022/07/13 02:17:14;;;;;;;22.00;12.00;;;20.30;99.90;;;;;;5033450;28;20049;-75
2022/07/13 02:19:40;;;;;;;16.70;11.55;;;20.30;99.90;;;;;;5033954;28;20373;-75
2022/07/13 02:22:07;;;;;;;19.83;12.17;;;20.30;99.90;;;;;;5034307;28;20049;-75
2022/07/13 02:24:33;;;;;;;;;;;20.30;99.90;;;;;;5033670;28;20052;-76
2022/07/13 02:26:59;;;;;;;;;;;20.30;99.90;;;;;;5016410;28;19951;-76
2022/07/13 02:29:25;;;;;;;19.38;11.88;;;20.30;99.90;;;;;;5033939;28;19936;-76
2022/07/13 02:31:51;;;;;;;25.70;12.33;;;20.30;99.90;;;;;;5015892;28;20042;-76
2022/07/13 02:34:17;;;;;;;20.35;13.05;;;20.30;99.90;;;;;;5033443;28;20053;-76
2022/07/13 02:36:43;;;;;;;20.23;11.82;;;20.30;99.90;;;;;;5033194;28;20124;-76
2022/07/13 02:39:14;;;;;;;22.17;12.70;;;20.30;99.90;;;;;;5132807;27;1284744;-78
2022/07/13 02:41:40;;;;;;;19.23;11.90;;;20.30;99.90;;;;;;5151794;27;20046;-77
2022/07/13 02:44:06;;;;;;;21.23;12.80;;;20.40;99.90;;;;;;5159158;27;20043;-76
2022/07/13 02:46:31;;;;;;;20.92;12.38;;;20.30;99.90;;;;;;5141354;27;20046;-76
2022/07/13 02:48:57;;;;;;;22.57;12.57;;;20.30;99.90;;;;;;5151841;27;20421;-76
2022/07/13 02:51:23;;;;;;;18.97;11.27;;;20.30;99.90;;;;;;5150854;27;20129;-77
2022/07/13 02:53:48;;;;;;;19.30;11.60;;;20.30;99.90;;;;;;5169383;27;20049;-76
2022/07/13 02:56:14;;;;;;;19.77;11.53;;;20.20;99.90;;;;;;5162251;27;20487;-76
2022/07/13 02:58:40;;;;;;;17.70;11.23;;;20.20;99.90;;;;;;5130273;27;20095;-76
2022/07/13 03:01:05;;;;;;;18.67;11.17;;;20.20;99.90;;;;;;5149327;27;20069;-77
2022/07/13 03:03:31;;;;;;;18.57;11.57;;;20.20;99.90;;;;;;5156528;27;20088;-77
2022/07/13 03:05:58;;;;;;;18.57;11.20;;;20.20;99.90;;;;;;5148790;27;20043;-76
2022/07/13 03:08:23;;;;;;;19.88;11.85;;;20.10;99.90;;;;;;5151419;27;20057;-76
2022/07/13 03:10:49;;;;;;;18.93;11.40;;;20.10;99.90;;;;;;5169347;27;20537;-76
2022/07/13 03:13:15;;;;;;;18.07;10.97;;;20.20;99.90;;;;;;5169841;27;20046;-76
2022/07/13 03:15:40;;;;;;;19.07;11.20;;;20.10;99.90;;;;;;5169383;27;20042;-76
2022/07/13 03:18:07;;;;;;;17.53;11.23;;;20.20;99.90;;;;;;5153255;27;20053;-76
2022/07/13 03:20:34;;;;;;;;;;;20.20;99.90;;;;;;5129365;27;20046;-76
2022/07/13 03:23:00;;;;;;;22.35;11.27;;;20.10;99.90;;;;;;5149830;27;19919;-76
2022/07/13 03:25:26;;;;;;;22.07;11.20;;;20.10;99.90;;;;;;5169629;27;20439;-76
2022/07/13 03:27:51;;;;;;;20.37;11.77;;;20.10;99.90;;;;;;5151812;27;20304;-76
2022/07/13 03:30:17;;;;;;;23.97;11.77;;;20.10;99.90;;;;;;5139998;27;20431;-77
2022/07/13 03:32:43;;;;;;;22.93;11.83;;;20.10;99.90;;;;;;5129568;27;20035;-77
2022/07/13 03:35:10;;;;;;;18.63;10.90;;;20.20;99.90;;;;;;5129234;27;20043;-77
2022/07/13 03:37:35;;;;;;;18.92;11.23;;;20.30;99.90;;;;;;5159286;27;20046;-77
2022/07/13 03:40:02;;;;;;;21.92;10.65;;;20.30;99.90;;;;;;5150713;27;20057;-77
2022/07/13 03:42:28;;;;;;;20.75;10.95;;;20.20;99.90;;;;;;5169514;27;20073;-77
2022/07/13 03:44:53;;;;;;;21.33;10.57;;;20.10;99.90;;;;;;5150234;27;20046;-76
2022/07/13 03:47:19;;;;;;;17.80;10.77;;;20.10;99.90;;;;;;5167208;27;20081;-77
2022/07/13 03:49:44;;;;;;;19.27;10.07;;;20.10;99.90;;;;;;5150750;27;20047;-77
2022/07/13 03:52:10;;;;;;;18.50;9.67;;;20.10;99.90;;;;;;5134931;27;20043;-77
2022/07/13 03:54:36;;;;;;;22.00;9.57;;;20.20;99.90;;;;;;5115689;27;20043;-77
2022/07/13 03:57:01;;;;;;;19.67;10.07;;;20.10;99.90;;;;;;5137330;27;20039;-77
2022/07/13 03:59:27;;;;;;;16.37;9.83;;;20.10;99.90;;;;;;5136624;27;20049;-76
2022/07/13 04:01:53;;;;;;;16.67;9.67;;;20.10;99.90;;;;;;5154477;27;20039;-76
2022/07/13 04:04:18;;;;;;;14.67;9.00;;;20.20;99.90;;;;;;5153690;27;20043;-76
2022/07/13 04:06:44;;;;;;;16.57;8.93;;;20.20;99.90;;;;;;5131951;27;20566;-77
2022/07/13 04:09:10;;;;;;;14.73;9.37;;;20.20;99.90;;;;;;5153941;27;20046;-76
2022/07/13 04:11:36;;;;;;;15.27;9.35;;;20.20;99.90;;;;;;5153791;27;20070;-77
2022/07/13 04:14:02;;;;;;;20.77;8.90;;;20.20;99.90;;;;;;5155149;27;20177;-77
2022/07/13 04:16:27;;;;;;;14.03;8.53;;;20.20;99.90;;;;;;5154856;27;20099;-75
2022/07/13 04:18:53;;;;;;;18.43;8.63;;;20.20;99.90;;;;;;5149470;27;20081;-77
2022/07/13 04:21:19;;;;;;;18.83;8.37;;;20.30;99.90;;;;;;5130919;27;20490;-78
2022/07/13 04:23:44;;;;;;;15.70;8.73;;;20.30;99.90;;;;;;5154248;27;20129;-78
2022/07/13 04:26:10;;;;;;;16.23;7.63;;;20.30;99.90;;;;;;5154661;27;20047;-77
2022/07/13 04:28:36;;;;;;;15.50;7.80;;;20.40;99.90;;;;;;5151051;27;20334;-77
2022/07/13 04:31:02;;;;;;;13.47;7.40;;;20.40;99.90;;;;;;5146773;27;20046;-76
2022/07/13 04:33:27;;;;;;;13.07;7.40;;;20.40;99.90;;;;;;5154367;27;20115;-77
2022/07/13 04:35:53;;;;;;;14.23;7.17;;;20.50;99.90;;;;;;5152602;27;20049;-76
2022/07/13 04:38:19;;;;;;;12.83;7.17;;;20.50;99.90;;;;;;5136029;27;20051;-76
2022/07/13 04:40:46;;;;;;;16.00;7.50;;;20.60;99.90;;;;;;5137913;27;20035;-76
2022/07/13 04:43:12;;;;;;;13.45;6.78;;;20.50;99.90;;;;;;5136017;27;20057;-75
2022/07/13 04:45:37;;;;;;;11.97;7.57;;;20.60;99.90;;;;;;5153557;27;20043;-76
2022/07/13 04:48:04;;;;;;;13.83;7.20;;;20.60;99.90;;;;;;5151932;27;20035;-75
2022/07/13 04:50:29;;;;;;;13.15;6.93;;;20.60;99.90;;;;;;5149244;27;20039;-75
2022/07/13 04:52:55;;;;;;;12.87;7.47;;;20.60;99.90;;;;;;5132956;27;20047;-75
2022/07/13 04:55:21;;;;;;;11.67;6.67;;;20.70;99.90;;;;;;5133353;27;20043;-75
2022/07/13 04:57:47;;;;;;;10.67;6.20;;;20.70;99.90;;;;;;5114541;27;20382;-75
2022/07/13 05:00:13;;;;;;;11.00;6.70;;;20.70;99.90;;;;;;5115531;27;20075;-75
2022/07/13 05:02:39;;;;;;;15.37;6.90;;;20.80;99.90;;;;;;5096519;27;20046;-76
2022/07/13 05:05:05;;;;;;;10.17;6.57;;;20.80;99.90;;;;;;5113753;27;20134;-76
2022/07/13 05:07:31;;;;;;;12.55;6.15;;;20.80;99.90;;;;;;5114456;27;20050;-76
2022/07/13 05:09:57;;;;;;;10.60;6.43;;;20.70;99.90;;;;;;5118663;27;20043;-75
2022/07/13 05:12:23;;;;;;;12.10;6.40;;;20.80;99.90;;;;;;5135703;27;20382;-76
2022/07/13 05:14:49;;;;;;;10.43;6.07;;;20.90;99.90;;;;;;5153317;27;20043;-76
2022/07/13 05:17:16;;;;;;;10.85;6.10;;;20.90;99.90;;;;;;5153276;27;20122;-76
2022/07/13 05:19:43;;;;;;;10.15;6.00;;;21.00;99.90;;;;;;5120052;27;20047;-77
2022/07/13 05:22:09;;;;;;;11.20;6.03;;;21.10;99.90;;;;;;5153808;27;20042;-77
2022/07/13 05:24:36;;;;;;;11.27;6.23;;;21.10;99.90;;;;;;5153331;27;20130;-77
2022/07/13 05:27:02;;;;;;;;;;;21.20;99.90;;;;;;5153929;27;20329;-77
2022/07/13 05:29:27;;;;;;;12.52;6.07;;;21.20;99.90;;;;;;5151559;27;20362;-77
2022/07/13 05:31:53;;;;;;;14.80;5.83;;;21.30;99.90;;;;;;5146150;27;20074;-77
2022/07/13 05:34:19;;;;;;;10.73;5.23;;;21.20;99.90;;;;;;5146536;27;20050;-77
2022/07/13 05:36:44;;;;;;;10.57;5.70;;;21.30;99.90;;;;;;5096983;27;20423;-77
2022/07/13 05:39:10;;;;;;;14.43;6.77;;;21.30;99.90;;;;;;5110457;28;20050;-77
2022/07/13 05:41:36;;;;;;;11.13;6.47;;;21.40;99.90;;;;;;5113259;27;20118;-77
2022/07/13 05:44:01;;;;;;;11.47;6.30;;;21.40;99.90;;;;;;5111316;28;20467;-77
2022/07/13 05:46:28;;;;;;;14.13;6.63;;;21.60;99.90;;;;;;5130448;27;20043;-76
2022/07/13 05:48:53;;;;;;;12.43;6.82;;;21.70;99.90;;;;;;5130371;27;20126;-76
2022/07/13 05:51:19;;;;;;;13.60;6.37;;;21.90;99.90;;;;;;5126420;27;20114;-76
2022/07/13 05:53:46;;;;;;;9.67;5.80;;;21.90;99.90;;;;;;5109898;28;20077;-77
2022/07/13 05:56:11;;;;;;;;;;;22.00;99.90;;;;;;5112186;28;20102;-76
2022/07/13 05:58:37;;;;;;;14.43;6.68;;;22.10;99.90;;;;;;5111676;28;20371;-76
2022/07/13 06:01:03;;;;;;;13.50;6.30;;;22.20;99.90;;;;;;5111072;28;20051;-76
2022/07/13 06:03:28;;;;;;;9.97;5.60;;;22.20;99.90;;;;;;5121461;27;20052;-76
2022/07/13 06:05:54;;;;;;;10.50;6.10;;;22.30;99.90;;;;;;5108918;28;20089;-77
2022/07/13 06:08:20;;;;;;;11.47;6.37;;;22.30;99.90;;;;;;5111560;28;20066;-77
2022/07/13 06:10:45;;;;;;;11.90;6.57;;;22.40;99.90;;;;;;5111993;27;20087;-77
2022/07/13 06:13:11;;;;;;;11.37;6.57;;;22.50;99.90;;;;;;5130506;27;20944;-76
2022/07/13 06:15:37;;;;;;;12.70;7.03;;;22.70;99.90;;;;;;5111548;27;20050;-76
2022/07/13 06:18:04;;;;;;;12.90;6.70;;;22.70;99.90;;;;;;5110322;28;20086;-77
2022/07/13 06:20:30;;;;;;;13.23;7.20;;;22.80;99.90;;;;;;5109050;28;20120;-77
2022/07/13 06:23:10;;;;;;;11.77;7.53;;;22.90;99.90;;;;;;5114014;27;20475;-77
2022/07/13 06:25:39;;;;;;;12.48;7.10;;;22.90;99.90;;;;;;5132042;27;20047;-77
2022/07/13 06:28:06;;;;;;;10.73;7.22;;;23.00;99.90;;;;;;5131301;27;20047;-77
2022/07/13 06:30:35;;;;;;;10.52;6.75;;;23.10;99.90;;;;;;5130959;27;20040;-77
2022/07/13 06:33:02;;;;;;;11.88;6.47;;;23.20;99.90;;;;;;5129893;27;20047;-77
2022/07/13 06:35:29;;;;;;;12.02;6.22;;;23.30;99.90;;;;;;5130721;27;20094;-77
2022/07/13 06:37:55;;;;;;;14.45;6.22;;;23.30;99.90;;;;;;5130957;27;20055;-77
2022/07/13 06:40:21;;;;;;;13.55;6.28;;;23.20;99.90;;;;;;5130856;28;20107;-77
2022/07/13 06:42:47;;;;;;;14.48;6.32;;;23.20;99.90;;;;;;5131327;28;20047;-77
2022/07/13 06:45:14;;;;;;;10.37;5.80;;;23.30;99.90;;;;;;5130986;28;20046;-77
2022/07/13 06:47:40;;;;;;;14.90;6.05;;;23.30;99.90;;;;;;5131707;28;20276;-77
2022/07/13 06:50:07;;;;;;;12.25;6.03;;;23.40;99.90;;;;;;5129506;28;20051;-77
2022/07/13 06:52:33;;;;;;;12.30;5.75;;;23.50;99.90;;;;;;5132142;28;20043;-77
2022/07/13 06:54:59;;;;;;;13.77;6.53;;;23.50;99.90;;;;;;5096406;28;20047;-77
2022/07/13 06:57:24;;;;;;;10.60;5.67;;;23.50;99.90;;;;;;5110718;28;20187;-77
2022/07/13 06:59:50;;;;;;;12.07;5.93;;;23.60;99.90;;;;;;5092889;28;20040;-77
2022/07/13 07:02:16;;;;;;;15.47;6.23;;;23.70;99.90;;;;;;5118468;28;20043;-77
2022/07/13 07:04:41;;;;;;;9.70;5.60;;;23.80;99.90;;;;;;5128697;28;20050;-79
2022/07/13 07:07:09;;;;;;;10.93;5.43;;;23.90;99.40;;;;;;5129528;28;20401;-77
2022/07/13 07:09:35;;;;;;;10.15;5.82;;;23.90;99.60;;;;;;5129808;28;20552;-77
2022/07/13 07:12:01;;;;;;;9.43;5.63;;;24.10;99.70;;;;;;5130805;28;20043;-76
2022/07/13 07:14:27;;;;;;;15.13;6.10;;;24.10;98.50;;;;;;5115318;28;20289;-78
2022/07/13 07:16:52;;;;;;;16.10;6.33;;;24.00;99.10;;;;;;5110769;28;20043;-78
2022/07/13 07:19:18;;;;;;;12.93;5.70;;;24.10;98.90;;;;;;5091597;28;20310;-78
2022/07/13 07:21:44;;;;;;;12.60;5.47;;;24.20;99.30;;;;;;5114209;28;20044;-78
2022/07/13 07:24:09;;;;;;;12.50;6.47;;;24.30;99.40;;;;;;5131801;27;20058;-77
2022/07/13 07:26:35;;;;;;;14.43;6.30;;;24.40;99.40;;;;;;5115601;27;20123;-77
2022/07/13 07:29:01;;;;;;;14.73;7.20;;;24.30;99.30;;;;;;5125815;27;20046;-78
2022/07/13 07:31:26;;;;;;;14.70;7.43;;;24.30;98.90;;;;;;5135714;27;20089;-78
2022/07/13 07:33:52;;;;;;;21.07;9.03;;;24.20;99.20;;;;;;5134566;27;20100;-78
2022/07/13 07:36:18;;;;;;;18.85;9.23;;;24.30;99.40;;;;;;5116993;27;20066;-78
2022/07/13 07:38:44;;;;;;;20.37;9.83;;;24.40;99.50;;;;;;5131319;27;20107;-78
2022/07/13 07:41:10;;;;;;;19.25;9.35;;;24.40;99.40;;;;;;5135184;27;20281;-77
2022/07/13 07:43:39;;;;;;;20.30;9.88;;;24.50;99.00;;;;;;5135197;27;20047;-77
2022/07/13 07:46:05;;;;;;;20.90;9.70;;;24.60;99.20;;;;;;5134967;27;20054;-77
2022/07/13 07:48:31;;;;;;;18.95;9.50;;;24.60;99.50;;;;;;5134001;27;20043;-77
2022/07/13 07:50:57;;;;;;;18.73;9.80;;;24.70;99.60;;;;;;5147262;27;20125;-77
2022/07/13 07:53:23;;;;;;;21.75;10.80;;;24.70;99.70;;;;;;5158356;27;20031;-77
2022/07/13 07:55:48;;;;;;;16.20;9.90;;;24.70;99.40;;;;;;5158776;27;20049;-77
2022/07/13 07:58:14;;;;;;;19.53;9.83;;;24.70;99.30;;;;;;5158082;27;20281;-77
2022/07/13 08:00:41;;;;;;;19.73;9.67;;;24.70;99.20;;;;;;5138891;27;20449;-77
2022/07/13 08:03:08;;;;;;;22.02;9.95;;;24.60;99.40;;;;;;5118861;28;20088;-77
2022/07/13 08:05:33;;;;;;;18.92;10.43;;;24.70;99.60;;;;;;5118923;28;20052;-76
2022/07/13 08:07:59;;;;;;;15.88;9.55;;;24.80;99.50;;;;;;5119455;28;20055;-77
2022/07/13 08:10:25;;;;;;;18.25;9.85;;;24.80;99.60;;;;;;5140356;27;20042;-75
2022/07/13 08:12:51;;;;;;;17.17;9.80;;;24.90;99.60;;;;;;5142854;27;20055;-76
2022/07/13 08:15:17;;;;;;;15.93;9.77;;;24.90;99.60;;;;;;5139715;27;20122;-76
2022/07/13 08:17:43;;;;;;;20.30;10.00;;;25.00;99.60;;;;;;5139614;27;20131;-76
2022/07/13 08:20:10;;;;;;;25.05;10.80;;;25.10;99.60;;;;;;5132856;27;20039;-77
2022/07/13 08:22:38;;;;;;;19.02;10.07;;;25.20;99.20;;;;;;5134594;27;20100;-76
2022/07/13 08:25:04;;;;;;;20.77;10.20;;;25.30;99.10;;;;;;5133403;27;20149;-77
2022/07/13 08:27:30;;;;;;;17.77;10.07;;;25.40;99.40;;;;;;5134110;27;20099;-77
2022/07/13 08:29:56;;;;;;;15.27;8.95;;;25.50;99.30;;;;;;5133493;27;20035;-79
2022/07/13 08:32:22;;;;;;;17.63;10.70;;;25.60;99.40;;;;;;5114706;27;20050;-76
2022/07/13 08:40:42;;;;;;;16.73;9.48;;;25.70;99.30;;;;;;5054473;28;20501;-76
2022/07/13 08:43:09;;;;;;;18.27;9.82;;;25.70;99.40;;;;;;5069933;28;20482;-77
2022/07/13 08:45:34;;;;;;;17.13;9.80;;;25.70;99.30;;;;;;5070912;28;20199;-77
2022/07/13 08:48:00;;;;;;;19.20;9.38;;;25.80;99.30;;;;;;5069875;28;20263;-77
2022/07/13 08:50:31;;;;;;;15.73;8.88;;;25.70;99.00;;;;;;5111482;28;20054;-77
2022/07/13 08:52:58;;;;;;;20.42;10.82;;;25.70;98.50;;;;;;5127226;27;20443;-77
2022/07/13 08:55:24;;;;;;;16.05;9.32;;;25.80;99.00;;;;;;5132641;27;20080;-76
2022/07/13 08:57:50;;;;;;;18.33;8.85;;;25.80;99.00;;;;;;5132466;27;20062;-76
2022/07/13 09:00:17;;;;;;;22.58;10.25;;;25.90;99.30;;;;;;5125879;27;20420;-77
2022/07/13 09:02:42;;;;;;;19.08;9.60;;;26.00;99.10;;;;;;5121128;27;20059;-77
2022/07/13 09:05:08;;;;;;;20.92;10.27;;;25.90;99.00;;;;;;5131755;27;20126;-77
2022/07/13 09:07:35;;;;;;;17.00;9.13;;;26.10;99.10;;;;;;5133410;27;20344;-76
2022/07/13 09:10:03;;;;;;;16.27;9.20;;;26.10;99.30;;;;;;5132810;27;20035;-77
2022/07/13 09:12:30;;;;;;;14.63;7.93;;;26.20;99.30;;;;;;5132678;27;20050;-77
2022/07/13 09:15:00;;;;;;;;;;;26.20;99.30;;;;;;5132171;27;20050;-77
2022/07/13 09:17:33;;;;;;;15.77;7.93;;;26.30;98.90;;;;;;5131469;27;20359;-76
2022/07/13 09:20:14;;;;;;;13.98;7.75;;;26.30;98.70;;;;;;5130796;27;20388;-76
2022/07/13 09:22:57;;;;;;;14.75;7.68;;;26.40;98.40;;;;;;5132950;27;20098;-75
2022/07/13 09:25:37;;;;;;;15.43;7.90;;;26.40;98.10;;;;;;5130287;27;20166;-76
2022/07/13 09:28:13;;;;;;;14.32;7.75;;;26.50;99.00;;;;;;5131656;27;20458;-76
2022/07/13 09:30:43;;;;;;;19.23;8.27;;;26.50;99.10;;;;;;5132782;27;20039;-76
2022/07/13 09:33:09;;;;;;;22.38;9.25;;;26.50;98.20;;;;;;5130112;27;20431;-76
2022/07/13 09:35:49;;;;;;;16.90;8.55;;;26.50;98.30;;;;;;5130426;27;20096;-76
2022/07/13 09:38:29;;;;;;;15.63;7.20;;;26.50;98.70;;;;;;5138953;27;20093;-76
2022/07/13 09:40:56;;;;;;;16.30;7.43;;;26.70;99.20;;;;;;5145145;27;20066;-76
2022/07/13 09:46:13;;;;;;;13.55;6.75;;;26.70;98.50;;;;;;5127494;27;20033;-76
2022/07/13 09:48:49;;;;;;;16.92;7.55;;;26.70;98.10;;;;;;5133871;27;20150;-75
2022/07/13 09:51:26;;;;;;;16.10;7.40;;;26.80;97.70;;;;;;5149976;27;20045;-76
2022/07/13 09:53:53;;;;;;;14.25;8.05;;;26.80;97.70;;;;;;5134079;27;20132;-75
2022/07/13 09:56:23;;;;;;;14.98;6.95;;;26.90;98.00;;;;;;5120179;27;20050;-76
2022/07/13 09:58:49;;;;;;;13.38;6.85;;;26.90;97.70;;;;;;5132248;27;20108;-76
2022/07/13 10:01:15;;;;;;;13.40;6.85;;;27.00;97.80;;;;;;5131403;27;20039;-77
2022/07/13 10:03:41;;;;;;;15.57;5.82;;;27.10;97.90;;;;;;5135952;27;20311;-78
2022/07/13 10:06:07;;;;;;;;;;;27.20;97.60;;;;;;5116356;27;20051;-78
2022/07/13 10:08:33;;;;;;;;;;;27.30;97.10;;;;;;5118049;27;19919;-76
2022/07/13 10:10:59;;;;;;;9.35;5.15;;;27.30;96.70;;;;;;5117149;27;20342;-76
2022/07/13 10:13:25;;;;;;;14.95;5.50;;;27.40;96.30;;;;;;5151583;27;20043;-76
2022/07/13 10:15:52;;;;;;;13.73;4.95;;;27.30;95.70;;;;;;5150934;27;20047;-77
2022/07/13 10:18:22;;;;;;;15.35;5.03;;;27.40;95.20;;;;;;5130746;27;20045;-77
2022/07/13 10:20:54;;;;;;;9.23;5.07;;;27.50;94.90;;;;;;5132407;27;20050;-76
2022/07/13 10:23:37;;;;;;;9.73;4.32;;;27.50;94.50;;;;;;5151426;27;20043;-77
2022/07/13 10:26:17;;;;;;;17.83;4.88;;;27.50;94.40;;;;;;5134135;27;20046;-77
2022/07/13 10:28:59;;;;;;;10.68;4.43;;;27.50;94.80;;;;;;5151742;27;20038;-77
2022/07/13 10:31:31;;;;;;;9.30;3.72;;;27.60;93.90;;;;;;5152332;27;20394;-78
2022/07/13 10:33:57;;;;;;;12.25;4.28;;;27.70;93.00;;;;;;5133745;27;20035;-78
2022/07/13 10:36:47;;;;;;;10.57;4.68;;;27.80;93.40;;;;;;5151099;27;20069;-79
2022/07/13 10:39:14;;;;;;;11.23;3.80;;;27.90;93.00;;;;;;5148608;27;20103;-77
2022/07/13 10:42:01;;;;;;;8.65;4.38;;;28.00;92.00;;;;;;5119977;28;20491;-78
2022/07/13 10:44:42;;;;;;;10.95;4.30;;;28.00;92.40;;;;;;5130816;28;20078;-77
2022/07/13 10:47:11;;;;;;;11.55;3.95;;;28.20;92.70;;;;;;5096710;28;20066;-80
2022/07/13 10:49:42;;;;;;;8.77;3.90;;;28.20;91.90;;;;;;5095534;28;20390;-77
2022/07/13 10:52:22;;;;;;;7.43;3.42;;;28.40;92.20;;;;;;5142643;27;20481;-74
2022/07/13 10:57:35;;;;;;;8.77;3.95;;;28.40;91.60;;;;;;5151850;27;20046;-78
2022/07/13 11:02:51;;;;;;;8.15;3.65;;;28.50;91.90;;;;;;5146697;27;20057;-75
2022/07/13 11:05:19;;;;;;;8.82;3.97;;;28.50;90.50;;;;;;5153879;27;20130;-76
2022/07/13 11:07:47;;;;;;;6.97;3.53;;;28.30;90.40;;;;;;5156179;27;20130;-77
2022/07/13 11:10:32;;;;;;;6.82;3.60;;;28.40;91.60;;;;;;5137179;27;20553;-77
2022/07/13 11:13:00;;;;;;;8.45;3.45;;;28.40;90.40;;;;;;5156268;27;20498;-78
2022/07/13 11:15:52;;;;;;;9.63;3.58;;;28.40;90.50;;;;;;5134837;27;20066;-76
2022/07/13 11:18:25;;;;;;;8.20;3.50;;;28.40;90.30;;;;;;5134414;27;20051;-76
2022/07/13 11:21:25;;;;;;;8.05;4.20;;;28.40;89.50;;;;;;5134683;27;20051;-75
2022/07/13 11:26:51;;;;;;;8.68;3.53;;;28.60;88.90;;;;;;5135089;27;20475;-76
2022/07/13 11:29:41;;;;;;;9.75;3.20;;;28.60;88.60;;;;;;5143371;27;20043;-76
2022/07/13 11:32:07;;;;;;;5.55;2.38;;;28.30;90.10;;;;;;5137675;27;20046;-74
2022/07/13 11:34:34;;;;;;;5.93;2.58;;;28.20;85.40;;;;;;5132174;27;20396;-76
2022/07/13 11:37:01;;;;;;;6.95;2.30;;;28.20;86.90;;;;;;5155448;27;20038;-74
2022/07/13 11:39:29;;;;;;;7.25;2.30;;;28.10;83.90;;;;;;5118978;27;20062;-75
2022/07/13 11:41:57;;;;;;;5.85;2.03;;;28.10;84.30;;;;;;5127089;27;20039;-76
2022/07/13 11:44:29;;;;;;;5.57;1.70;;;28.30;85.60;;;;;;5134696;27;20078;-75
2022/07/13 11:46:56;;;;;;;7.40;1.58;;;28.40;82.60;;;;;;5137262;27;20038;-76
2022/07/13 11:49:23;;;;;;;4.40;1.83;;;28.60;82.80;;;;;;5153618;27;20042;-76
2022/07/13 11:51:50;;;;;;;6.57;1.63;;;28.90;82.30;;;;;;5137264;27;20043;-77
2022/07/13 11:54:18;;;;;;;4.05;1.63;;;29.10;81.40;;;;;;5135424;27;20118;-77
2022/07/13 11:56:57;;;;;;;4.70;1.70;;;29.30;79.80;;;;;;5155532;27;20053;-76
2022/07/13 11:59:42;;;;;;;5.55;2.05;;;29.40;79.50;;;;;;5153450;27;20038;-76
2022/07/13 12:02:10;;;;;;;3.22;1.70;;;29.50;80.80;;;;;;5155216;27;20275;-76
2022/07/13 12:04:43;;;;;;;5.07;2.03;;;29.50;79.70;;;;;;5152996;27;20299;-76
2022/07/13 12:07:16;;;;;;;5.90;1.80;;;29.30;77.50;;;;;;5143526;27;20047;-76
2022/07/13 12:09:55;;;;;;;4.90;1.67;;;29.30;78.60;;;;;;5133784;27;20047;-75
2022/07/13 12:12:26;;;;;;;5.63;1.92;;;29.30;78.20;;;;;;5134076;27;20139;-76
2022/07/13 12:14:53;;;;;;;7.78;2.13;;;29.30;76.80;;;;;;5115964;27;20054;-75
2022/07/13 12:17:20;;;;;;;5.80;2.00;;;29.30;78.30;;;;;;5115524;27;20368;-76
2022/07/13 12:19:46;;;;;;;5.30;2.00;;;29.50;79.20;;;;;;5128292;27;20054;-76
2022/07/13 12:22:12;;;;;;;6.72;2.05;;;29.60;78.80;;;;;;5136559;27;20049;-75
2022/07/13 12:24:43;;;;;;;7.82;1.77;;;29.70;79.50;;;;;;5153781;27;20050;-75
2022/07/13 12:27:19;;;;;;;7.75;2.00;;;29.70;78.40;;;;;;5136475;27;20126;-75
2022/07/13 12:29:45;;;;;;;6.22;2.28;;;29.90;79.00;;;;;;5153624;27;20165;-75
2022/07/13 12:32:11;;;;;;;6.57;2.22;;;29.80;77.00;;;;;;5134781;27;20418;-76
2022/07/13 12:34:57;;;;;;;5.72;1.98;;;29.90;77.90;;;;;;5152323;27;20707;-75
2022/07/13 12:37:36;;;;;;;5.05;2.30;;;30.00;76.70;;;;;;5153383;27;20054;-75
2022/07/13 12:40:02;;;;;;;6.30;1.90;;;30.00;75.50;;;;;;5122106;27;20051;-75
2022/07/13 12:42:28;;;;;;;4.65;1.60;;;29.50;75.10;;;;;;5143519;27;20125;-74
2022/07/13 12:44:54;;;;;;;4.22;1.50;;;29.40;74.40;;;;;;5127863;27;20130;-75
2022/07/13 12:47:24;;;;;;;6.18;2.00;;;29.40;76.00;;;;;;5134500;27;20066;-77
2022/07/13 12:49:50;;;;;;;6.18;2.05;;;29.60;75.60;;;;;;5121271;27;20070;-75
2022/07/13 12:52:19;;;;;;;8.57;2.13;;;29.60;78.00;;;;;;5154396;27;20439;-75
2022/07/13 12:54:50;;;;;;;7.43;2.45;;;29.80;78.50;;;;;;5153994;27;20094;-74
2022/07/13 12:57:23;;;;;;;8.68;2.65;;;29.30;76.80;;;;;;5153899;27;20557;-75